createdAt,value
2017-11-11T00:00:00.593Z,77.30
2017-11-11T00:02:28.109Z,77.10
2017-11-11T00:04:55.608Z,77.00
2017-11-11T00:07:23.098Z,77.10
2017-11-11T00:09:50.604Z,76.70
2017-11-11T00:12:18.882Z,77.00
2017-11-11T00:14:47.196Z,77.00
2017-11-11T00:17:15.341Z,77.00
2017-11-11T00:19:42.844Z,76.70
2017-11-11T00:22:10.341Z,76.60
2017-11-11T00:24:38.648Z,76.80
2017-11-11T00:27:06.140Z,76.80
2017-11-11T00:29:33.645Z,76.80
2017-11-11T00:32:01.906Z,76.80
2017-11-11T00:34:29.413Z,76.70
2017-11-11T00:36:56.908Z,76.70
2017-11-11T00:39:24.401Z,76.70
2017-11-11T00:41:52.661Z,76.90
2017-11-11T00:44:20.970Z,76.80
2017-11-11T00:46:48.471Z,76.70
2017-11-11T00:49:15.969Z,76.80
2017-11-11T00:51:44.224Z,76.20
2017-11-11T00:54:11.726Z,76.20
2017-11-11T00:56:39.216Z,76.30
2017-11-11T00:59:06.793Z,76.30
2017-11-11T01:01:35.812Z,76.10
2017-11-11T01:04:04.066Z,76.10
2017-11-11T01:06:31.572Z,76.00
2017-11-11T01:08:59.115Z,76.10
2017-11-11T01:11:26.625Z,75.50
2017-11-11T01:13:54.169Z,75.30
2017-11-11T01:16:21.661Z,75.20
2017-11-11T01:18:49.170Z,74.30
2017-11-11T01:21:16.670Z,74.20
2017-11-11T01:23:44.183Z,74.70
2017-11-11T01:26:11.722Z,75.00
2017-11-11T01:28:39.985Z,75.40
2017-11-11T01:31:08.257Z,75.60
2017-11-11T01:33:36.537Z,75.60
2017-11-11T01:36:04.805Z,76.70
2017-11-11T01:38:32.297Z,75.90
2017-11-11T01:40:59.809Z,75.90
2017-11-11T01:43:27.301Z,76.10
2017-11-11T01:45:55.557Z,76.70
2017-11-11T01:48:23.843Z,76.80
2017-11-11T01:50:52.104Z,77.20
2017-11-11T01:53:19.592Z,77.20
2017-11-11T01:55:47.096Z,78.20
2017-11-11T01:58:14.597Z,77.40
2017-11-11T02:00:43.009Z,77.70
2017-11-11T02:03:10.549Z,77.70
2017-11-11T02:05:38.104Z,77.70
2017-11-11T02:08:25.490Z,78.00
2017-11-11T02:10:52.984Z,77.90
2017-11-11T02:13:21.296Z,78.40
2017-11-11T02:15:48.834Z,78.40
2017-11-11T02:18:16.341Z,79.00
2017-11-11T02:20:43.837Z,78.50
2017-11-11T02:23:12.105Z,78.90
2017-11-11T02:25:40.365Z,78.80
2017-11-11T02:28:07.867Z,78.80
2017-11-11T02:30:35.414Z,79.80
2017-11-11T02:33:02.908Z,79.10
2017-11-11T02:35:30.419Z,79.40
2017-11-11T02:37:58.732Z,79.30
2017-11-11T02:40:26.244Z,79.30
2017-11-11T02:42:54.524Z,80.70
2017-11-11T02:45:22.800Z,79.70
2017-11-11T02:47:51.061Z,80.00
2017-11-11T02:50:18.552Z,80.00
2017-11-11T02:52:46.060Z,79.70
2017-11-11T02:55:13.552Z,79.40
2017-11-11T02:57:41.812Z,79.60
2017-11-11T03:00:09.353Z,79.50
2017-11-11T03:02:36.868Z,79.60
2017-11-11T03:05:04.364Z,80.00
2017-11-11T03:07:31.881Z,79.70
2017-11-11T03:09:59.377Z,79.80
2017-11-11T03:12:26.892Z,79.80
2017-11-11T03:14:55.165Z,79.60
2017-11-11T03:17:23.437Z,79.30
2017-11-11T03:19:51.749Z,79.70
2017-11-11T03:22:19.244Z,79.60
2017-11-11T03:24:47.516Z,79.80
2017-11-11T03:27:15.028Z,79.70
2017-11-11T03:29:42.525Z,79.80
2017-11-11T03:32:10.044Z,79.90
2017-11-11T03:34:37.548Z,80.40
2017-11-11T03:37:05.061Z,80.40
2017-11-11T03:39:32.557Z,80.40
2017-11-11T03:42:00.046Z,80.40
2017-11-11T03:44:28.325Z,81.00
2017-11-11T03:46:56.589Z,81.50
2017-11-11T03:49:24.085Z,81.40
2017-11-11T03:51:51.597Z,82.20
2017-11-11T03:54:19.105Z,82.10
2017-11-11T03:56:46.604Z,81.90
2017-11-11T03:59:14.097Z,82.30
2017-11-11T04:01:42.369Z,83.00
2017-11-11T04:04:10.629Z,83.60
2017-11-11T04:06:38.144Z,83.50
2017-11-11T04:09:05.661Z,83.60
2017-11-11T04:11:33.952Z,84.80
2017-11-11T04:14:02.212Z,84.00
2017-11-11T04:16:30.489Z,83.90
2017-11-11T04:18:58.754Z,84.00
2017-11-11T04:21:27.009Z,84.10
2017-11-11T04:23:54.505Z,84.10
2017-11-11T04:26:22.765Z,84.10
2017-11-11T04:28:51.765Z,84.20
2017-11-11T04:31:20.034Z,84.10
2017-11-11T04:33:47.569Z,84.10
2017-11-11T04:36:15.067Z,84.20
2017-11-11T04:38:43.330Z,84.40
2017-11-11T04:41:10.841Z,84.40
2017-11-11T04:43:38.332Z,84.50
2017-11-11T04:46:05.875Z,84.10
2017-11-11T04:48:33.369Z,80.00
2017-11-11T04:51:01.629Z,73.70
2017-11-11T04:53:29.121Z,73.70
2017-11-11T04:55:57.376Z,73.50
2017-11-11T04:58:24.869Z,73.60
2017-11-11T05:00:52.405Z,73.10
2017-11-11T05:03:20.664Z,72.90
2017-11-11T05:05:48.158Z,72.90
2017-11-11T05:08:15.679Z,73.30
2017-11-11T05:10:43.940Z,72.30
2017-11-11T05:13:11.437Z,72.30
2017-11-11T05:15:39.741Z,72.70
2017-11-11T05:18:07.236Z,72.60
2017-11-11T05:20:34.737Z,71.80
2017-11-11T05:23:02.997Z,72.60
2017-11-11T05:25:31.257Z,72.90
2017-11-11T05:27:58.752Z,72.80
2017-11-11T05:30:26.264Z,72.70
2017-11-11T05:32:54.573Z,72.50
2017-11-11T05:35:22.988Z,71.80
2017-11-11T05:37:50.492Z,71.80
2017-11-11T05:40:18.773Z,72.40
2017-11-11T05:42:47.055Z,72.50
2017-11-11T05:45:15.321Z,72.60
2017-11-11T05:47:43.597Z,72.50
2017-11-11T05:50:11.089Z,72.50
2017-11-11T05:52:38.644Z,73.20
2017-11-11T05:55:06.136Z,72.20
2017-11-11T05:57:33.652Z,71.60
2017-11-11T06:02:36.028Z,71.80
2017-11-11T06:05:03.545Z,71.40
2017-11-11T06:07:31.053Z,71.40
2017-11-11T06:09:59.328Z,71.30
2017-11-11T06:12:27.594Z,71.60
2017-11-11T06:14:55.134Z,71.50
2017-11-11T06:17:22.641Z,72.60
2017-11-11T06:19:50.140Z,71.90
2017-11-11T06:22:17.633Z,72.00
2017-11-11T06:24:45.897Z,72.30
2017-11-11T06:27:13.395Z,71.50
2017-11-11T06:29:40.888Z,72.20
2017-11-11T06:32:08.376Z,72.20
2017-11-11T06:34:35.881Z,72.30
2017-11-11T06:37:03.384Z,72.30
2017-11-11T06:39:30.902Z,72.50
2017-11-11T06:41:58.401Z,72.60
2017-11-11T06:44:25.898Z,73.30
2017-11-11T06:46:53.404Z,73.70
2017-11-11T06:49:20.921Z,73.80
2017-11-11T06:51:48.460Z,74.00
2017-11-11T06:54:16.721Z,74.40
2017-11-11T06:56:44.218Z,74.20
2017-11-11T06:59:11.733Z,74.60
2017-11-11T07:01:39.236Z,74.40
2017-11-11T07:04:06.769Z,73.80
2017-11-11T07:06:35.033Z,73.70
2017-11-11T07:09:03.352Z,73.10
2017-11-11T07:11:30.952Z,73.10
2017-11-11T07:13:58.450Z,72.70
2017-11-11T07:16:26.724Z,72.70
2017-11-11T07:18:54.982Z,72.20
2017-11-11T07:21:23.296Z,72.50
2017-11-11T07:23:50.784Z,72.50
2017-11-11T07:26:18.281Z,72.20
2017-11-11T07:28:46.553Z,72.60
2017-11-11T07:31:14.832Z,72.50
2017-11-11T07:33:43.142Z,72.40
2017-11-11T07:36:10.640Z,72.40
2017-11-11T07:38:38.129Z,71.80
2017-11-11T07:41:06.389Z,71.30
2017-11-11T07:43:33.904Z,71.20
2017-11-11T07:46:01.409Z,70.40
2017-11-11T07:48:28.948Z,69.60
2017-11-11T07:50:56.449Z,70.20
2017-11-11T07:53:23.956Z,69.10
2017-11-11T07:55:51.466Z,68.70
2017-11-11T07:58:19.726Z,68.10
2017-11-11T08:00:48.008Z,67.70
2017-11-11T08:03:16.290Z,67.60
2017-11-11T08:05:44.565Z,67.80
2017-11-11T08:08:12.828Z,67.70
2017-11-11T08:10:41.099Z,68.10
2017-11-11T08:13:08.602Z,68.00
2017-11-11T08:15:36.096Z,67.70
2017-11-11T08:18:03.588Z,67.10
2017-11-11T08:20:31.869Z,66.80
2017-11-11T08:23:00.132Z,66.30
2017-11-11T08:25:27.633Z,66.20
2017-11-11T08:27:55.132Z,66.30
2017-11-11T08:30:22.684Z,66.80
2017-11-11T08:32:50.181Z,67.30
2017-11-11T08:35:18.440Z,67.10
2017-11-11T08:37:46.716Z,67.10
2017-11-11T08:40:14.217Z,67.80
2017-11-11T08:42:41.716Z,67.60
2017-11-11T08:45:09.217Z,66.90
2017-11-11T08:47:36.717Z,67.00
2017-11-11T08:52:57.422Z,67.80
2017-11-11T08:55:24.928Z,67.50
2017-11-11T08:57:53.200Z,67.10
2017-11-11T09:00:21.480Z,67.20
2017-11-11T09:02:48.990Z,67.30
2017-11-11T09:05:16.482Z,66.90
2017-11-11T09:07:43.980Z,66.40
2017-11-11T09:10:11.506Z,66.50
2017-11-11T09:12:39.022Z,66.10
2017-11-11T09:15:06.517Z,65.20
2017-11-11T09:17:34.029Z,65.40
2017-11-11T09:20:01.592Z,64.70
2017-11-11T09:22:29.089Z,65.00
2017-11-11T09:24:56.598Z,64.80
2017-11-11T09:27:24.341Z,64.20
2017-11-11T09:29:52.605Z,64.40
2017-11-11T09:32:20.886Z,65.20
2017-11-11T09:34:49.157Z,64.10
2017-11-11T09:37:17.433Z,64.80
2017-11-11T09:39:44.930Z,64.80
2017-11-11T09:42:12.421Z,64.20
2017-11-11T09:44:39.929Z,64.40
2017-11-11T09:47:08.188Z,64.40
2017-11-11T09:49:36.460Z,64.70
2017-11-11T09:52:03.961Z,64.60
2017-11-11T09:54:31.480Z,64.60
2017-11-11T09:56:59.775Z,63.20
2017-11-11T09:59:27.285Z,63.20
2017-11-11T10:01:54.805Z,63.10
2017-11-11T10:04:22.314Z,63.90
2017-11-11T10:06:49.860Z,63.60
2017-11-11T10:09:17.369Z,62.30
2017-11-11T10:11:44.876Z,63.10
2017-11-11T10:14:12.369Z,63.70
2017-11-11T10:16:40.631Z,62.80
2017-11-11T10:19:08.177Z,62.80
2017-11-11T10:21:35.669Z,62.70
2017-11-11T10:24:03.933Z,62.70
2017-11-11T10:26:31.449Z,62.70
2017-11-11T10:28:58.946Z,62.90
2017-11-11T10:31:26.496Z,63.10
2017-11-11T10:33:54.007Z,62.10
2017-11-11T10:36:21.550Z,60.50
2017-11-11T10:38:49.049Z,59.80
2017-11-11T10:41:16.548Z,59.20
2017-11-11T10:43:44.824Z,58.40
2017-11-11T10:46:13.086Z,57.80
2017-11-11T10:48:40.588Z,57.70
2017-11-11T10:51:08.092Z,58.00
2017-11-11T10:53:35.634Z,57.40
2017-11-11T10:56:03.136Z,56.70
2017-11-11T10:58:31.441Z,57.10
2017-11-11T11:00:58.977Z,57.10
2017-11-11T11:03:27.236Z,56.20
2017-11-11T11:05:54.773Z,56.10
2017-11-11T11:08:22.293Z,55.90
2017-11-11T11:10:49.789Z,56.70
2017-11-11T11:13:17.286Z,56.30
2017-11-11T11:15:45.549Z,56.40
2017-11-11T11:18:13.820Z,56.20
2017-11-11T11:20:42.236Z,56.10
2017-11-11T11:23:09.729Z,55.70
2017-11-11T11:25:37.252Z,56.10
2017-11-11T11:28:04.746Z,55.60
2017-11-11T11:30:32.283Z,55.40
2017-11-11T11:32:59.821Z,55.00
2017-11-11T11:35:27.324Z,53.70
2017-11-11T11:37:54.821Z,52.60
2017-11-11T11:40:23.097Z,52.70
2017-11-11T11:42:51.377Z,52.70
2017-11-11T11:45:19.684Z,52.90
2017-11-11T11:47:47.185Z,52.90
2017-11-11T11:50:15.460Z,52.80
2017-11-11T11:52:42.976Z,52.50
2017-11-11T11:55:10.489Z,52.80
2017-11-11T11:57:37.984Z,53.00
2017-11-11T12:00:05.478Z,53.20
2017-11-11T12:02:32.973Z,53.00
2017-11-11T12:05:01.254Z,53.30
2017-11-11T12:07:29.530Z,53.70
2017-11-11T12:09:57.817Z,53.30
2017-11-11T12:12:26.084Z,52.10
2017-11-11T12:14:54.398Z,52.40
2017-11-11T12:17:22.024Z,52.30
2017-11-11T12:19:50.309Z,52.10
2017-11-11T12:22:18.578Z,51.90
2017-11-11T12:24:46.890Z,52.20
2017-11-11T12:27:14.421Z,52.10
2017-11-11T12:29:41.945Z,52.80
2017-11-11T12:32:09.458Z,51.30
2017-11-11T12:34:36.957Z,51.30
2017-11-11T12:37:05.233Z,51.90
2017-11-11T12:39:32.744Z,51.80
2017-11-11T12:42:00.293Z,52.20
2017-11-11T12:44:27.801Z,52.00
2017-11-11T12:46:55.314Z,52.40
2017-11-11T12:49:22.812Z,52.70
2017-11-11T12:51:50.330Z,52.90
2017-11-11T12:54:17.854Z,53.10
2017-11-11T12:56:45.373Z,53.40
2017-11-11T12:59:12.888Z,54.50
2017-11-11T13:01:41.154Z,54.80
2017-11-11T13:04:08.673Z,54.80
2017-11-11T13:06:36.485Z,54.90
2017-11-11T13:09:03.985Z,55.70
2017-11-11T13:11:31.509Z,56.40
2017-11-11T13:13:59.769Z,56.30
2017-11-11T13:19:21.035Z,57.10
2017-11-11T13:21:48.551Z,57.00
2017-11-11T13:24:16.048Z,57.10
2017-11-11T13:26:43.556Z,56.90
2017-11-11T13:29:11.061Z,57.00
2017-11-11T13:31:39.368Z,57.30
2017-11-11T13:34:06.921Z,57.30
2017-11-11T13:36:34.437Z,57.40
2017-11-11T13:39:02.724Z,57.80
2017-11-11T13:41:31.032Z,58.00
2017-11-11T13:43:58.529Z,58.00
2017-11-11T13:46:26.045Z,57.80
2017-11-11T13:48:53.543Z,57.70
2017-11-11T13:51:21.116Z,57.60
2017-11-11T13:53:48.705Z,57.60
2017-11-11T13:56:16.964Z,56.70
2017-11-11T13:58:45.232Z,57.00
2017-11-11T14:01:12.729Z,56.90
2017-11-11T14:03:40.229Z,57.20
2017-11-11T14:06:07.720Z,56.90
2017-11-11T14:08:35.993Z,56.80
2017-11-11T14:11:04.253Z,56.20
2017-11-11T14:13:31.751Z,56.20
2017-11-11T14:15:59.252Z,56.40
2017-11-11T14:18:26.763Z,56.30
2017-11-11T14:20:54.261Z,56.50
2017-11-11T14:23:21.757Z,56.40
2017-11-11T14:25:50.036Z,56.60
2017-11-11T14:28:18.342Z,56.10
2017-11-11T14:30:45.843Z,56.10
2017-11-11T14:33:13.395Z,56.50
2017-11-11T14:35:40.899Z,56.50
2017-11-11T14:38:09.169Z,56.10
2017-11-11T14:40:37.428Z,55.60
2017-11-11T14:43:04.962Z,55.60
2017-11-11T14:45:32.469Z,55.00
2017-11-11T14:48:00.745Z,54.10
2017-11-11T14:50:29.013Z,54.20
2017-11-11T14:52:57.276Z,53.80
2017-11-11T14:55:24.812Z,53.80
2017-11-11T14:57:52.317Z,54.10
2017-11-11T15:00:20.593Z,54.40
2017-11-11T15:02:48.896Z,54.20
2017-11-11T15:05:16.434Z,54.20
2017-11-11T15:07:44.694Z,53.30
2017-11-11T15:10:12.964Z,53.70
2017-11-11T15:12:40.456Z,53.70
2017-11-11T15:15:07.988Z,53.90
2017-11-11T15:17:36.257Z,53.80
2017-11-11T15:20:05.312Z,54.10
2017-11-11T15:22:32.816Z,54.00
2017-11-11T15:25:01.092Z,53.80
2017-11-11T15:27:29.352Z,54.50
2017-11-11T15:29:56.845Z,54.40
2017-11-11T15:32:24.345Z,53.60
2017-11-11T15:34:51.853Z,53.60
2017-11-11T15:37:20.113Z,53.70
2017-11-11T15:39:48.385Z,53.20
2017-11-11T15:42:15.901Z,53.20
2017-11-11T15:44:43.401Z,52.70
2017-11-11T15:47:10.909Z,53.10
2017-11-11T15:49:38.405Z,52.90
2017-11-11T15:52:05.914Z,54.40
2017-11-11T15:54:33.408Z,53.60
2017-11-11T15:57:00.915Z,53.00
2017-11-11T15:59:29.181Z,53.70
2017-11-11T16:01:57.442Z,54.10
2017-11-11T16:04:24.938Z,53.40
2017-11-11T16:06:52.436Z,53.50
2017-11-11T16:09:19.929Z,53.70
2017-11-11T16:11:48.195Z,54.00
2017-11-11T16:14:15.714Z,54.00
2017-11-11T16:16:43.261Z,54.20
2017-11-11T16:19:10.791Z,53.80
2017-11-11T16:21:39.057Z,54.20
2017-11-11T16:24:07.325Z,54.40
2017-11-11T16:26:34.850Z,54.40
2017-11-11T16:29:02.364Z,54.40
2017-11-11T16:31:30.624Z,54.50
2017-11-11T16:33:58.909Z,54.60
2017-11-11T16:36:27.185Z,54.80
2017-11-11T16:38:55.467Z,54.80
2017-11-11T16:41:23.730Z,55.10
2017-11-11T16:43:51.269Z,55.10
2017-11-11T16:46:18.765Z,55.60
2017-11-11T16:48:47.070Z,56.10
2017-11-11T16:51:14.585Z,56.10
2017-11-11T16:53:42.853Z,56.60
2017-11-11T16:56:11.117Z,56.60
2017-11-11T16:58:38.613Z,56.60
2017-11-11T17:01:06.874Z,57.60
2017-11-11T17:03:35.181Z,58.30
2017-11-11T17:06:02.677Z,58.30
2017-11-11T17:08:30.217Z,58.70
2017-11-11T17:10:57.724Z,58.50
2017-11-11T17:13:25.994Z,59.10
2017-11-11T17:15:53.510Z,59.10
2017-11-11T17:18:21.009Z,59.60
2017-11-11T17:20:48.537Z,60.00
2017-11-11T17:23:16.039Z,61.20
2017-11-11T17:25:44.301Z,60.20
2017-11-11T17:28:11.851Z,60.20
2017-11-11T17:30:39.352Z,59.80
2017-11-11T17:33:06.864Z,58.90
2017-11-11T17:35:34.381Z,58.90
2017-11-11T17:38:01.888Z,59.10
2017-11-11T17:40:29.443Z,58.80
2017-11-11T17:42:57.005Z,58.80
2017-11-11T17:45:24.517Z,58.80
2017-11-11T17:47:52.033Z,59.00
2017-11-11T17:50:19.545Z,59.20
2017-11-11T17:52:47.058Z,59.40
2017-11-11T17:55:15.324Z,60.40
2017-11-11T17:57:42.836Z,60.30
2017-11-11T18:00:10.636Z,60.80
2017-11-11T18:02:38.329Z,61.50
2017-11-11T18:05:06.585Z,62.90
2017-11-11T18:07:34.100Z,62.90
2017-11-11T18:10:01.613Z,63.20
2017-11-11T18:12:29.126Z,64.10
2017-11-11T18:14:56.620Z,63.60
2017-11-11T18:17:24.109Z,63.50
2017-11-11T18:19:51.604Z,63.60
2017-11-11T18:22:19.099Z,63.90
2017-11-11T18:24:47.356Z,64.90
2017-11-11T18:27:14.849Z,64.30
2017-11-11T18:29:43.137Z,64.60
2017-11-11T18:32:10.640Z,64.50
2017-11-11T18:34:38.133Z,64.60
2017-11-11T18:37:06.426Z,65.40
2017-11-11T18:39:33.929Z,65.20
2017-11-11T18:42:01.421Z,65.90
2017-11-11T18:44:29.729Z,66.00
2017-11-11T18:46:57.224Z,65.90
2017-11-11T18:49:24.719Z,66.20
2017-11-11T19:00:32.925Z,68.30
2017-11-11T19:03:00.455Z,69.30
2017-11-11T19:05:28.717Z,70.80
2017-11-11T19:07:56.984Z,71.70
2017-11-11T19:10:24.494Z,71.70
2017-11-11T19:12:51.989Z,73.00
2017-11-11T19:15:19.525Z,72.90
2017-11-11T19:17:47.021Z,73.20
2017-11-11T19:20:14.533Z,73.80
2017-11-11T19:25:36.427Z,74.90
2017-11-11T19:28:03.924Z,74.90
2017-11-11T19:30:31.432Z,75.20
2017-11-11T19:32:58.940Z,75.30
2017-11-11T19:35:26.445Z,75.20
2017-11-11T19:37:53.982Z,75.70
2017-11-11T19:40:21.521Z,75.90
2017-11-11T19:42:49.037Z,75.90
2017-11-11T19:45:16.532Z,76.10
2017-11-11T19:47:44.033Z,76.50
2017-11-11T19:50:11.534Z,76.70
2017-11-11T19:55:33.367Z,77.20
2017-11-11T19:58:01.672Z,76.90
2017-11-11T20:00:29.176Z,76.90
2017-11-11T20:02:56.668Z,76.90
2017-11-11T20:05:24.925Z,77.10
2017-11-11T20:07:52.424Z,77.00
2017-11-11T20:10:19.943Z,77.30
2017-11-11T20:12:48.227Z,77.40
2017-11-11T20:15:16.489Z,78.00
2017-11-11T20:17:43.981Z,77.10
2017-11-11T20:20:11.481Z,77.10
2017-11-11T20:22:39.222Z,76.90
2017-11-11T20:28:01.232Z,76.50
2017-11-11T20:30:29.508Z,76.50
2017-11-11T20:32:57.777Z,76.20
2017-11-11T20:35:25.275Z,76.20
2017-11-11T20:37:52.789Z,76.10
2017-11-11T20:40:20.293Z,76.20
2017-11-11T20:42:47.832Z,76.20
2017-11-11T20:45:16.096Z,76.60
2017-11-11T20:47:44.371Z,76.60
2017-11-11T20:50:12.633Z,76.70
2017-11-11T20:52:40.134Z,76.70
2017-11-11T20:55:07.672Z,76.90
2017-11-11T20:57:35.936Z,77.30
2017-11-11T21:00:03.434Z,77.30
2017-11-11T21:02:30.961Z,77.70
2017-11-11T21:04:59.225Z,78.60
2017-11-11T21:07:27.485Z,78.70
2017-11-11T21:09:54.985Z,78.70
2017-11-11T21:12:23.249Z,79.10
2017-11-11T21:14:51.553Z,79.40
2017-11-11T21:17:19.061Z,79.30
2017-11-11T21:19:46.568Z,79.60
2017-11-11T21:22:14.085Z,79.90
2017-11-11T21:24:41.613Z,80.00
2017-11-11T21:27:09.125Z,80.10
2017-11-11T21:29:37.423Z,81.00
2017-11-11T21:32:04.928Z,80.90
2017-11-11T21:34:32.449Z,81.20
2017-11-11T21:36:59.957Z,81.10
2017-11-11T21:39:27.449Z,81.40
2017-11-11T21:41:54.985Z,81.30
2017-11-11T21:44:23.250Z,81.50
2017-11-11T21:46:51.525Z,81.60
2017-11-11T21:49:19.019Z,81.70
2017-11-11T21:51:46.513Z,81.50
2017-11-11T21:54:14.053Z,81.00
2017-11-11T21:56:41.561Z,80.80
2017-11-11T21:59:09.054Z,80.70
2017-11-11T22:01:36.548Z,80.80
2017-11-11T22:04:04.041Z,80.90
2017-11-11T22:06:31.544Z,81.10
2017-11-11T22:08:59.057Z,80.90
2017-11-11T22:11:26.548Z,81.80
2017-11-11T22:13:54.050Z,81.90
2017-11-11T22:16:21.576Z,81.60
2017-11-11T22:18:49.097Z,81.60
2017-11-11T22:21:17.360Z,81.50
2017-11-11T22:23:44.856Z,81.50
2017-11-11T22:26:12.369Z,81.70
2017-11-11T22:28:39.867Z,81.60
2017-11-11T22:31:08.120Z,81.70
2017-11-11T22:33:35.628Z,81.70
2017-11-11T22:36:03.122Z,81.60
2017-11-11T22:38:30.652Z,81.80
2017-11-11T22:40:58.164Z,81.70
2017-11-11T22:43:26.428Z,82.50
2017-11-11T22:45:54.709Z,82.80
2017-11-11T22:48:22.981Z,83.00
2017-11-11T22:50:51.248Z,83.30
2017-11-11T22:53:20.253Z,83.60
2017-11-11T22:55:48.517Z,84.10
2017-11-11T22:58:16.029Z,84.00
2017-11-11T23:00:43.520Z,84.00
2017-11-11T23:03:11.018Z,84.10
2017-11-11T23:05:39.318Z,84.30
2017-11-11T23:08:06.815Z,84.20
2017-11-11T23:10:34.635Z,84.20
2017-11-11T23:13:02.136Z,84.20
2017-11-11T23:15:29.628Z,83.90
2017-11-11T23:17:57.896Z,84.10
2017-11-11T23:20:25.397Z,84.10
2017-11-11T23:22:52.896Z,84.30
2017-11-11T23:25:20.410Z,84.10
2017-11-11T23:27:47.908Z,84.40
2017-11-11T23:30:15.400Z,84.50
2017-11-11T23:32:43.674Z,85.30
2017-11-11T23:35:11.932Z,85.20
2017-11-11T23:37:39.424Z,85.20
2017-11-11T23:40:06.962Z,85.20
2017-11-11T23:42:35.238Z,85.60
2017-11-11T23:45:03.525Z,85.70
2017-11-11T23:47:31.786Z,85.70
2017-11-11T23:50:00.052Z,85.90
2017-11-11T23:52:27.549Z,85.90
2017-11-11T23:54:55.084Z,86.10
2017-11-11T23:57:23.357Z,86.70
2017-11-11T23:59:50.864Z,86.60
